sensor_id;sensor_type;location;lat;lon;timestamp;pressure;altitude;pressure_sealevel;temperature;humidity
21520;BME280;10921;53.614;9.882;2022-12-16T00:01:24;100871.84;;;0.37;77.03
21520;BME280;10921;53.614;9.882;2022-12-16T00:03:53;100873.94;;;0.47;77.05
21520;BME280;10921;53.614;9.882;2022-12-16T00:06:22;100868.00;;;0.44;76.81
21520;BME280;10921;53.614;9.882;2022-12-16T00:08:49;100872.63;;;0.56;77.08
21520;BME280;10921;53.614;9.882;2022-12-16T00:11:17;100877.47;;;0.63;77.17
21520;BME280;10921;53.614;9.882;2022-12-16T00:13:46;100884.22;;;0.69;77.45
21520;BME280;10921;53.614;9.882;2022-12-16T00:16:15;100881.50;;;0.70;77.02
21520;BME280;10921;53.614;9.882;2022-12-16T00:18:42;100885.50;;;0.78;77.38
21520;BME280;10921;53.614;9.882;2022-12-16T00:21:08;100883.56;;;0.81;76.98
21520;BME280;10921;53.614;9.882;2022-12-16T00:23:35;100882.44;;;0.87;76.73
21520;BME280;10921;53.614;9.882;2022-12-16T00:26:04;100883.97;;;0.91;76.50
21520;BME280;10921;53.614;9.882;2022-12-16T00:28:31;100884.50;;;0.97;76.60
21520;BME280;10921;53.614;9.882;2022-12-16T00:30:57;100888.75;;;1.00;76.41
21520;BME280;10921;53.614;9.882;2022-12-16T00:33:25;100882.31;;;1.05;76.96
21520;BME280;10921;53.614;9.882;2022-12-16T00:35:53;100881.41;;;1.07;76.53
21520;BME280;10921;53.614;9.882;2022-12-16T00:38:20;100873.50;;;1.07;76.17
21520;BME280;10921;53.614;9.882;2022-12-16T00:40:47;100888.88;;;1.14;76.76
21520;BME280;10921;53.614;9.882;2022-12-16T00:43:14;100883.63;;;1.14;76.38
21520;BME280;10921;53.614;9.882;2022-12-16T00:45:41;100892.03;;;1.21;76.44
21520;BME280;10921;53.614;9.882;2022-12-16T00:48:07;100893.88;;;1.19;76.90
21520;BME280;10921;53.614;9.882;2022-12-16T00:50:34;100893.56;;;1.25;76.36
21520;BME280;10921;53.614;9.882;2022-12-16T00:53:02;100871.47;;;1.12;76.62
21520;BME280;10921;53.614;9.882;2022-12-16T00:55:29;100902.06;;;1.30;76.13
21520;BME280;10921;53.614;9.882;2022-12-16T00:57:55;100896.94;;;1.27;76.02
21520;BME280;10921;53.614;9.882;2022-12-16T01:00:22;100903.59;;;1.34;76.37
21520;BME280;10921;53.614;9.882;2022-12-16T01:02:49;100910.56;;;1.35;76.02
21520;BME280;10921;53.614;9.882;2022-12-16T01:05:21;100916.59;;;1.37;76.26
21520;BME280;10921;53.614;9.882;2022-12-16T01:07:54;100906.16;;;1.35;75.86
21520;BME280;10921;53.614;9.882;2022-12-16T01:10:23;100902.81;;;1.32;75.87
21520;BME280;10921;53.614;9.882;2022-12-16T01:12:50;100916.66;;;1.35;76.02
21520;BME280;10921;53.614;9.882;2022-12-16T01:15:17;100916.47;;;1.38;75.92
21520;BME280;10921;53.614;9.882;2022-12-16T01:17:44;100915.53;;;1.39;75.98
21520;BME280;10921;53.614;9.882;2022-12-16T01:20:11;100913.09;;;1.36;75.66
21520;BME280;10921;53.614;9.882;2022-12-16T01:22:38;100932.19;;;1.40;76.17
21520;BME280;10921;53.614;9.882;2022-12-16T01:25:05;100928.69;;;1.39;75.67
21520;BME280;10921;53.614;9.882;2022-12-16T01:27:31;100932.09;;;1.41;75.28
21520;BME280;10921;53.614;9.882;2022-12-16T01:29:58;100933.03;;;1.40;75.35
21520;BME280;10921;53.614;9.882;2022-12-16T01:32:24;100934.88;;;1.38;75.54
21520;BME280;10921;53.614;9.882;2022-12-16T01:34:52;100936.50;;;1.41;75.56
21520;BME280;10921;53.614;9.882;2022-12-16T01:37:22;100932.03;;;1.43;75.30
21520;BME280;10921;53.614;9.882;2022-12-16T01:39:49;100936.59;;;1.39;75.57
21520;BME280;10921;53.614;9.882;2022-12-16T01:42:18;100945.16;;;1.43;75.35
21520;BME280;10921;53.614;9.882;2022-12-16T01:44:46;100945.31;;;1.40;75.77
21520;BME280;10921;53.614;9.882;2022-12-16T01:47:32;100944.41;;;1.41;76.24
21520;BME280;10921;53.614;9.882;2022-12-16T01:50:10;100946.94;;;1.42;75.59
21520;BME280;10921;53.614;9.882;2022-12-16T01:52:45;100946.03;;;1.44;75.19
21520;BME280;10921;53.614;9.882;2022-12-16T01:55:18;100948.88;;;1.39;75.40
21520;BME280;10921;53.614;9.882;2022-12-16T01:57:53;100948.88;;;1.39;75.82
21520;BME280;10921;53.614;9.882;2022-12-16T02:00:21;100950.66;;;1.38;74.55
21520;BME280;10921;53.614;9.882;2022-12-16T02:02:48;100949.22;;;1.33;75.03
21520;BME280;10921;53.614;9.882;2022-12-16T02:05:16;100947.53;;;1.32;74.69
21520;BME280;10921;53.614;9.882;2022-12-16T02:10:27;100947.53;;;1.32;75.49
21520;BME280;10921;53.614;9.882;2022-12-16T02:13:04;100952.00;;;1.30;75.36
21520;BME280;10921;53.614;9.882;2022-12-16T02:15:41;100944.28;;;1.27;76.03
21520;BME280;10921;53.614;9.882;2022-12-16T02:24:12;100948.25;;;1.18;76.00
21520;BME280;10921;53.614;9.882;2022-12-16T02:32:16;100950.94;;;0.99;74.78
21520;BME280;10921;53.614;9.882;2022-12-16T02:35:52;100950.94;;;0.99;75.83
21520;BME280;10921;53.614;9.882;2022-12-16T02:40:44;100941.38;;;0.81;75.30
21520;BME280;10921;53.614;9.882;2022-12-16T02:43:17;100946.16;;;0.73;75.11
21520;BME280;10921;53.614;9.882;2022-12-16T02:45:47;100945.41;;;0.71;74.63
21520;BME280;10921;53.614;9.882;2022-12-16T02:48:15;100920.75;;;0.56;74.65
21520;BME280;10921;53.614;9.882;2022-12-16T02:50:46;100941.53;;;0.61;75.07
21520;BME280;10921;53.614;9.882;2022-12-16T02:53:14;100947.00;;;0.56;74.78
21520;BME280;10921;53.614;9.882;2022-12-16T02:58:27;100948.28;;;0.48;75.12
21520;BME280;10921;53.614;9.882;2022-12-16T03:01:24;100946.75;;;0.44;76.28
21520;BME280;10921;53.614;9.882;2022-12-16T03:04:01;100951.59;;;0.34;75.69
21520;BME280;10921;53.614;9.882;2022-12-16T03:06:30;100955.44;;;0.27;75.55
21520;BME280;10921;53.614;9.882;2022-12-16T03:08:58;100957.06;;;0.29;75.78
21520;BME280;10921;53.614;9.882;2022-12-16T03:11:27;100951.63;;;0.15;75.31
21520;BME280;10921;53.614;9.882;2022-12-16T03:13:55;100950.28;;;0.07;75.29
21520;BME280;10921;53.614;9.882;2022-12-16T03:16:26;100942.91;;;-0.04;75.64
21520;BME280;10921;53.614;9.882;2022-12-16T03:18:56;100953.47;;;-0.06;75.32
21520;BME280;10921;53.614;9.882;2022-12-16T03:21:29;100940.09;;;-0.18;76.16
21520;BME280;10921;53.614;9.882;2022-12-16T03:23:59;100947.31;;;-0.23;75.89
21520;BME280;10921;53.614;9.882;2022-12-16T03:26:34;100958.06;;;-0.29;76.41
21520;BME280;10921;53.614;9.882;2022-12-16T03:31:39;100966.00;;;-0.50;76.34
21520;BME280;10921;53.614;9.882;2022-12-16T03:34:27;100964.56;;;-0.57;76.51
21520;BME280;10921;53.614;9.882;2022-12-16T03:36:59;100953.09;;;-0.75;76.16
21520;BME280;10921;53.614;9.882;2022-12-16T03:39:28;100972.59;;;-0.80;75.89
21520;BME280;10921;53.614;9.882;2022-12-16T03:41:56;100975.75;;;-0.92;76.04
21520;BME280;10921;53.614;9.882;2022-12-16T03:44:24;100978.41;;;-0.94;76.31
21520;BME280;10921;53.614;9.882;2022-12-16T03:46:51;100972.81;;;-1.07;76.27
21520;BME280;10921;53.614;9.882;2022-12-16T03:49:17;100976.69;;;-1.15;76.76
21520;BME280;10921;53.614;9.882;2022-12-16T03:51:44;100972.72;;;-1.24;76.70
21520;BME280;10921;53.614;9.882;2022-12-16T03:54:10;100992.91;;;-1.27;76.97
21520;BME280;10921;53.614;9.882;2022-12-16T03:56:37;100993.16;;;-1.33;76.95
21520;BME280;10921;53.614;9.882;2022-12-16T03:59:03;100981.50;;;-1.47;77.24
21520;BME280;10921;53.614;9.882;2022-12-16T04:01:30;100993.72;;;-1.47;77.49
21520;BME280;10921;53.614;9.882;2022-12-16T04:03:57;100984.47;;;-1.56;77.98
21520;BME280;10921;53.614;9.882;2022-12-16T04:06:23;100989.03;;;-1.61;77.59
21520;BME280;10921;53.614;9.882;2022-12-16T04:08:49;100994.34;;;-1.62;77.74
21520;BME280;10921;53.614;9.882;2022-12-16T04:11:16;100998.03;;;-1.68;78.03
21520;BME280;10921;53.614;9.882;2022-12-16T04:14:00;100999.25;;;-1.77;77.91
21520;BME280;10921;53.614;9.882;2022-12-16T04:16:46;101000.47;;;-1.85;77.87
21520;BME280;10921;53.614;9.882;2022-12-16T04:19:34;101004.97;;;-1.89;77.85
21520;BME280;10921;53.614;9.882;2022-12-16T04:22:34;101004.38;;;-1.97;77.84
21520;BME280;10921;53.614;9.882;2022-12-16T04:25:30;101016.81;;;-2.02;77.74
21520;BME280;10921;53.614;9.882;2022-12-16T04:27:58;101023.09;;;-2.07;77.94
21520;BME280;10921;53.614;9.882;2022-12-16T04:30:25;101017.28;;;-2.14;78.12
21520;BME280;10921;53.614;9.882;2022-12-16T04:32:57;101015.66;;;-2.18;78.13
21520;BME280;10921;53.614;9.882;2022-12-16T04:35:44;101020.19;;;-2.23;77.88
21520;BME280;10921;53.614;9.882;2022-12-16T04:38:29;101020.38;;;-2.28;78.03
21520;BME280;10921;53.614;9.882;2022-12-16T04:41:15;101026.69;;;-2.33;78.17
21520;BME280;10921;53.614;9.882;2022-12-16T04:44:01;101032.88;;;-2.36;78.66
21520;BME280;10921;53.614;9.882;2022-12-16T04:46:46;101030.38;;;-2.39;78.62
21520;BME280;10921;53.614;9.882;2022-12-16T04:49:32;101040.81;;;-2.39;78.55
21520;BME280;10921;53.614;9.882;2022-12-16T04:52:18;101039.06;;;-2.38;78.88
21520;BME280;10921;53.614;9.882;2022-12-16T04:55:04;101036.44;;;-2.38;79.41
21520;BME280;10921;53.614;9.882;2022-12-16T04:57:57;101035.63;;;-2.40;79.96
21520;BME280;10921;53.614;9.882;2022-12-16T05:00:43;101042.47;;;-2.36;79.70
21520;BME280;10921;53.614;9.882;2022-12-16T05:03:29;101046.00;;;-2.37;79.57
21520;BME280;10921;53.614;9.882;2022-12-16T05:06:14;101039.16;;;-2.41;79.67
21520;BME280;10921;53.614;9.882;2022-12-16T05:09:00;101060.75;;;-2.36;79.78
21520;BME280;10921;53.614;9.882;2022-12-16T05:11:45;101047.81;;;-2.39;79.70
21520;BME280;10921;53.614;9.882;2022-12-16T05:14:30;101054.84;;;-2.41;79.87
21520;BME280;10921;53.614;9.882;2022-12-16T05:17:15;101048.66;;;-2.39;80.06
21520;BME280;10921;53.614;9.882;2022-12-16T05:20:01;101047.69;;;-2.36;80.40
21520;BME280;10921;53.614;9.882;2022-12-16T05:22:46;101068.25;;;-2.27;80.42
21520;BME280;10921;53.614;9.882;2022-12-16T05:25:31;101066.41;;;-2.24;80.31
21520;BME280;10921;53.614;9.882;2022-12-16T05:28:16;101065.44;;;-2.21;80.25
21520;BME280;10921;53.614;9.882;2022-12-16T05:31:02;101071.41;;;-2.18;80.49
21520;BME280;10921;53.614;9.882;2022-12-16T05:33:47;101077.44;;;-2.16;80.32
21520;BME280;10921;53.614;9.882;2022-12-16T05:36:32;101087.66;;;-2.09;80.80
21520;BME280;10921;53.614;9.882;2022-12-16T05:39:17;101090.88;;;-2.01;80.82
21520;BME280;10921;53.614;9.882;2022-12-16T05:42:02;101080.28;;;-1.98;80.93
21520;BME280;10921;53.614;9.882;2022-12-16T05:44:47;101087.06;;;-1.93;81.00
21520;BME280;10921;53.614;9.882;2022-12-16T05:47:32;101091.22;;;-1.87;80.73
21520;BME280;10921;53.614;9.882;2022-12-16T05:50:17;101102.13;;;-1.76;80.89
21520;BME280;10921;53.614;9.882;2022-12-16T05:53:02;101098.44;;;-1.70;81.19
21520;BME280;10921;53.614;9.882;2022-12-16T05:55:47;101099.09;;;-1.65;80.88
21520;BME280;10921;53.614;9.882;2022-12-16T05:58:32;101092.97;;;-1.64;80.50
21520;BME280;10921;53.614;9.882;2022-12-16T06:01:17;101103.16;;;-1.57;80.70
21520;BME280;10921;53.614;9.882;2022-12-16T06:04:02;101112.50;;;-1.51;80.50
21520;BME280;10921;53.614;9.882;2022-12-16T06:06:47;101103.91;;;-1.53;80.30
21520;BME280;10921;53.614;9.882;2022-12-16T06:09:32;101114.22;;;-1.50;79.95
21520;BME280;10921;53.614;9.882;2022-12-16T06:12:31;101117.81;;;-1.53;79.76
21520;BME280;10921;53.614;9.882;2022-12-16T06:15:16;101122.50;;;-1.61;79.28
21520;BME280;10921;53.614;9.882;2022-12-16T06:18:01;101109.94;;;-1.74;78.93
21520;BME280;10921;53.614;9.882;2022-12-16T06:20:46;101122.16;;;-1.75;79.00
21520;BME280;10921;53.614;9.882;2022-12-16T06:23:31;101125.03;;;-1.83;78.82
21520;BME280;10921;53.614;9.882;2022-12-16T06:26:16;101120.16;;;-1.92;78.43
21520;BME280;10921;53.614;9.882;2022-12-16T06:29:01;101129.88;;;-1.95;78.57
21520;BME280;10921;53.614;9.882;2022-12-16T06:31:46;101125.69;;;-1.99;78.70
21520;BME280;10921;53.614;9.882;2022-12-16T06:34:31;101136.28;;;-2.04;78.75
21520;BME280;10921;53.614;9.882;2022-12-16T06:37:16;101138.06;;;-2.04;79.24
21520;BME280;10921;53.614;9.882;2022-12-16T06:40:01;101142.38;;;-2.03;79.26
21520;BME280;10921;53.614;9.882;2022-12-16T06:42:46;101150.06;;;-1.99;79.20
21520;BME280;10921;53.614;9.882;2022-12-16T06:45:30;101151.81;;;-1.99;79.18
21520;BME280;10921;53.614;9.882;2022-12-16T06:48:16;101153.41;;;-1.95;79.41
21520;BME280;10921;53.614;9.882;2022-12-16T06:51:01;101161.84;;;-1.87;79.91
21520;BME280;10921;53.614;9.882;2022-12-16T06:53:45;101159.13;;;-1.84;79.70
21520;BME280;10921;53.614;9.882;2022-12-16T06:56:30;101174.72;;;-1.83;80.13
21520;BME280;10921;53.614;9.882;2022-12-16T06:59:15;101160.88;;;-1.85;79.87
21520;BME280;10921;53.614;9.882;2022-12-16T07:02:00;101174.53;;;-1.77;79.58
21520;BME280;10921;53.614;9.882;2022-12-16T07:04:45;101165.94;;;-1.80;79.73
21520;BME280;10921;53.614;9.882;2022-12-16T07:07:30;101175.31;;;-1.74;79.77
21520;BME280;10921;53.614;9.882;2022-12-16T07:10:15;101177.94;;;-1.74;79.23
21520;BME280;10921;53.614;9.882;2022-12-16T07:13:00;101183.22;;;-1.76;79.41
21520;BME280;10921;53.614;9.882;2022-12-16T07:15:45;101169.69;;;-1.87;79.47
21520;BME280;10921;53.614;9.882;2022-12-16T07:18:31;101190.22;;;-1.77;79.65
21520;BME280;10921;53.614;9.882;2022-12-16T07:21:15;101199.94;;;-1.80;79.40
21520;BME280;10921;53.614;9.882;2022-12-16T07:24:00;101194.75;;;-1.82;79.26
21520;BME280;10921;53.614;9.882;2022-12-16T07:26:45;101206.06;;;-1.81;79.59
21520;BME280;10921;53.614;9.882;2022-12-16T07:29:30;101205.28;;;-1.83;79.77
21520;BME280;10921;53.614;9.882;2022-12-16T07:32:16;101215.72;;;-1.83;79.69
21520;BME280;10921;53.614;9.882;2022-12-16T07:35:00;101210.50;;;-1.83;79.91
21520;BME280;10921;53.614;9.882;2022-12-16T07:37:45;101225.19;;;-1.79;79.83
21520;BME280;10921;53.614;9.882;2022-12-16T07:40:30;101222.63;;;-1.81;79.99
21520;BME280;10921;53.614;9.882;2022-12-16T07:43:15;101230.53;;;-1.82;80.05
21520;BME280;10921;53.614;9.882;2022-12-16T07:46:01;101240.94;;;-1.81;79.84
21520;BME280;10921;53.614;9.882;2022-12-16T07:48:45;101235.84;;;-1.84;80.13
21520;BME280;10921;53.614;9.882;2022-12-16T07:51:31;101243.59;;;-1.82;80.04
21520;BME280;10921;53.614;9.882;2022-12-16T07:54:16;101258.28;;;-1.78;79.99
21520;BME280;10921;53.614;9.882;2022-12-16T07:57:20;101254.72;;;-1.75;80.60
21520;BME280;10921;53.614;9.882;2022-12-16T08:00:06;101262.22;;;-1.66;80.61
21520;BME280;10921;53.614;9.882;2022-12-16T08:02:54;101242.09;;;-1.64;80.89
21520;BME280;10921;53.614;9.882;2022-12-16T08:05:40;101263.44;;;-1.52;80.92
21520;BME280;10921;53.614;9.882;2022-12-16T08:08:25;101264.97;;;-1.45;81.48
21520;BME280;10921;53.614;9.882;2022-12-16T08:11:09;101269.84;;;-1.35;81.28
21520;BME280;10921;53.614;9.882;2022-12-16T08:13:54;101271.06;;;-1.21;81.48
21520;BME280;10921;53.614;9.882;2022-12-16T08:16:39;101275.16;;;-1.14;81.71
21520;BME280;10921;53.614;9.882;2022-12-16T08:19:24;101277.44;;;-1.04;81.43
21520;BME280;10921;53.614;9.882;2022-12-16T08:22:09;101283.00;;;-0.90;81.87
21520;BME280;10921;53.614;9.882;2022-12-16T08:24:54;101292.28;;;-0.82;81.93
21520;BME280;10921;53.614;9.882;2022-12-16T08:27:39;101293.66;;;-0.72;81.69
21520;BME280;10921;53.614;9.882;2022-12-16T08:30:24;101311.50;;;-0.59;81.80
21520;BME280;10921;53.614;9.882;2022-12-16T08:33:09;101311.22;;;-0.52;81.64
21520;BME280;10921;53.614;9.882;2022-12-16T08:35:57;101312.50;;;-0.40;81.63
21520;BME280;10921;53.614;9.882;2022-12-16T08:38:42;101327.94;;;-0.32;81.44
21520;BME280;10921;53.614;9.882;2022-12-16T08:41:27;101325.00;;;-0.25;81.26
21520;BME280;10921;53.614;9.882;2022-12-16T08:44:12;101329.06;;;-0.16;80.75
21520;BME280;10921;53.614;9.882;2022-12-16T08:46:57;101337.56;;;-0.11;80.92
21520;BME280;10921;53.614;9.882;2022-12-16T08:49:42;101333.91;;;-0.07;80.97
21520;BME280;10921;53.614;9.882;2022-12-16T08:52:28;101344.88;;;0.03;80.94
21520;BME280;10921;53.614;9.882;2022-12-16T08:55:14;101329.88;;;0.06;80.98
21520;BME280;10921;53.614;9.882;2022-12-16T08:57:59;101335.69;;;0.14;80.72
21520;BME280;10921;53.614;9.882;2022-12-16T09:00:44;101341.44;;;0.22;80.53
21520;BME280;10921;53.614;9.882;2022-12-16T09:03:33;101354.06;;;0.34;80.52
21520;BME280;10921;53.614;9.882;2022-12-16T09:06:19;101342.50;;;0.39;80.44
21520;BME280;10921;53.614;9.882;2022-12-16T09:09:07;101350.91;;;0.47;80.29
21520;BME280;10921;53.614;9.882;2022-12-16T09:11:52;101362.88;;;0.54;79.79
21520;BME280;10921;53.614;9.882;2022-12-16T09:14:37;101346.13;;;0.56;80.25
21520;BME280;10921;53.614;9.882;2022-12-16T09:17:23;101364.19;;;0.64;79.88
21520;BME280;10921;53.614;9.882;2022-12-16T09:20:08;101363.19;;;0.66;79.57
21520;BME280;10921;53.614;9.882;2022-12-16T09:22:54;101381.22;;;0.76;79.17
21520;BME280;10921;53.614;9.882;2022-12-16T09:25:39;101363.88;;;0.72;79.27
21520;BME280;10921;53.614;9.882;2022-12-16T09:28:24;101373.09;;;0.80;79.55
21520;BME280;10921;53.614;9.882;2022-12-16T09:31:09;101375.59;;;0.83;79.29
21520;BME280;10921;53.614;9.882;2022-12-16T09:33:54;101382.44;;;0.87;78.99
21520;BME280;10921;53.614;9.882;2022-12-16T09:36:39;101389.06;;;0.96;79.52
21520;BME280;10921;53.614;9.882;2022-12-16T09:39:24;101390.63;;;1.00;79.16
21520;BME280;10921;53.614;9.882;2022-12-16T09:42:21;101388.75;;;1.03;80.00
21520;BME280;10921;53.614;9.882;2022-12-16T09:45:32;101385.97;;;1.07;80.38
21520;BME280;10921;53.614;9.882;2022-12-16T09:48:34;101397.84;;;1.15;79.61
21520;BME280;10921;53.614;9.882;2022-12-16T09:51:22;101391.75;;;1.15;79.19
21520;BME280;10921;53.614;9.882;2022-12-16T09:54:11;101408.84;;;1.23;79.24
21520;BME280;10921;53.614;9.882;2022-12-16T09:57:00;101399.91;;;1.27;79.06
21520;BME280;10921;53.614;9.882;2022-12-16T09:59:52;101402.56;;;1.27;79.30
21520;BME280;10921;53.614;9.882;2022-12-16T10:02:40;101399.66;;;1.33;79.19
21520;BME280;10921;53.614;9.882;2022-12-16T10:05:45;101391.47;;;1.39;78.92
21520;BME280;10921;53.614;9.882;2022-12-16T10:08:46;101406.06;;;1.47;79.80
21520;BME280;10921;53.614;9.882;2022-12-16T10:12:00;101410.09;;;1.54;79.73
21520;BME280;10921;53.614;9.882;2022-12-16T10:15:15;101412.53;;;1.58;79.76
21520;BME280;10921;53.614;9.882;2022-12-16T10:18:04;101410.75;;;1.59;78.51
21520;BME280;10921;53.614;9.882;2022-12-16T10:20:57;101421.16;;;1.62;77.88
21520;BME280;10921;53.614;9.882;2022-12-16T10:24:01;101417.41;;;1.67;79.07
21520;BME280;10921;53.614;9.882;2022-12-16T10:26:57;101412.97;;;1.68;78.82
21520;BME280;10921;53.614;9.882;2022-12-16T10:29:45;101411.97;;;1.70;77.82
21520;BME280;10921;53.614;9.882;2022-12-16T10:32:40;101411.69;;;1.76;78.09
21520;BME280;10921;53.614;9.882;2022-12-16T10:35:35;101419.50;;;1.78;77.59
21520;BME280;10921;53.614;9.882;2022-12-16T10:41:21;101421.94;;;1.83;77.01
21520;BME280;10921;53.614;9.882;2022-12-16T10:44:18;101421.63;;;1.89;77.29
21520;BME280;10921;53.614;9.882;2022-12-16T10:47:06;101427.88;;;1.86;76.78
21520;BME280;10921;53.614;9.882;2022-12-16T10:49:53;101430.19;;;1.94;76.72
21520;BME280;10921;53.614;9.882;2022-12-16T10:52:56;101418.50;;;1.99;77.97
21520;BME280;10921;53.614;9.882;2022-12-16T10:58:57;101430.50;;;2.05;77.95
21520;BME280;10921;53.614;9.882;2022-12-16T11:01:55;101418.22;;;2.05;77.50
21520;BME280;10921;53.614;9.882;2022-12-16T11:04:41;101419.19;;;2.03;76.43
21520;BME280;10921;53.614;9.882;2022-12-16T11:10:43;101415.06;;;2.16;77.60
21520;BME280;10921;53.614;9.882;2022-12-16T11:13:32;101414.47;;;2.28;77.33
21520;BME280;10921;53.614;9.882;2022-12-16T11:16:24;101411.22;;;2.23;76.50
21520;BME280;10921;53.614;9.882;2022-12-16T11:19:21;101415.47;;;2.26;76.95
21520;BME280;10921;53.614;9.882;2022-12-16T11:22:13;101413.63;;;2.28;76.68
21520;BME280;10921;53.614;9.882;2022-12-16T11:28:13;101421.22;;;2.34;76.04
21520;BME280;10921;53.614;9.882;2022-12-16T11:31:05;101420.34;;;2.33;75.62
21520;BME280;10921;53.614;9.882;2022-12-16T11:33:52;101417.78;;;2.32;74.93
21520;BME280;10921;53.614;9.882;2022-12-16T11:36:39;101422.00;;;2.36;75.12
21520;BME280;10921;53.614;9.882;2022-12-16T11:39:27;101420.28;;;2.35;75.00
21520;BME280;10921;53.614;9.882;2022-12-16T11:42:19;101433.09;;;2.42;75.68
21520;BME280;10921;53.614;9.882;2022-12-16T11:45:06;101433.84;;;2.44;75.07
21520;BME280;10921;53.614;9.882;2022-12-16T11:48:04;101438.97;;;2.47;75.31
21520;BME280;10921;53.614;9.882;2022-12-16T11:50:53;101433.69;;;2.47;75.13
21520;BME280;10921;53.614;9.882;2022-12-16T11:57:17;101436.81;;;2.56;74.82
21520;BME280;10921;53.614;9.882;2022-12-16T12:00:04;101448.28;;;2.55;73.84
21520;BME280;10921;53.614;9.882;2022-12-16T12:02:57;101454.34;;;2.57;73.77
21520;BME280;10921;53.614;9.882;2022-12-16T12:09:20;101453.41;;;2.58;74.30
21520;BME280;10921;53.614;9.882;2022-12-16T12:17:56;101460.97;;;2.46;73.76
21520;BME280;10921;53.614;9.882;2022-12-16T12:20:55;101458.41;;;2.45;73.87
21520;BME280;10921;53.614;9.882;2022-12-16T12:30:17;101467.69;;;2.35;74.26
21520;BME280;10921;53.614;9.882;2022-12-16T12:33:25;101477.31;;;2.36;73.81
21520;BME280;10921;53.614;9.882;2022-12-16T12:36:45;101477.50;;;2.31;73.84
21520;BME280;10921;53.614;9.882;2022-12-16T12:39:46;101475.97;;;2.27;73.57
21520;BME280;10921;53.614;9.882;2022-12-16T12:42:44;101481.38;;;2.24;74.31
21520;BME280;10921;53.614;9.882;2022-12-16T12:46:05;101479.66;;;2.23;74.50
21520;BME280;10921;53.614;9.882;2022-12-16T12:55:39;101472.06;;;2.17;73.78
21520;BME280;10921;53.614;9.882;2022-12-16T12:58:28;101483.22;;;2.22;73.47
21520;BME280;10921;53.614;9.882;2022-12-16T13:01:16;101477.81;;;2.25;73.42
21520;BME280;10921;53.614;9.882;2022-12-16T13:04:12;101486.34;;;2.30;73.96
21520;BME280;10921;53.614;9.882;2022-12-16T13:07:00;101491.84;;;2.26;73.04
21520;BME280;10921;53.614;9.882;2022-12-16T13:10:10;101501.16;;;2.33;73.63
21520;BME280;10921;53.614;9.882;2022-12-16T13:16:05;101511.06;;;2.28;73.01
21520;BME280;10921;53.614;9.882;2022-12-16T13:22:30;101499.59;;;2.10;73.18
21520;BME280;10921;53.614;9.882;2022-12-16T13:25:31;101511.41;;;2.01;73.47
21520;BME280;10921;53.614;9.882;2022-12-16T13:28:25;101493.06;;;1.81;73.01
21520;BME280;10921;53.614;9.882;2022-12-16T13:31:12;101516.09;;;1.76;72.75
21520;BME280;10921;53.614;9.882;2022-12-16T13:34:03;101495.66;;;1.62;73.54
21520;BME280;10921;53.614;9.882;2022-12-16T13:36:54;101519.53;;;1.58;73.35
21520;BME280;10921;53.614;9.882;2022-12-16T13:40:19;101515.47;;;1.51;73.93
21520;BME280;10921;53.614;9.882;2022-12-16T13:43:40;101521.25;;;1.38;74.14
21520;BME280;10921;53.614;9.882;2022-12-16T13:46:42;101517.25;;;1.30;74.77
21520;BME280;10921;53.614;9.882;2022-12-16T13:49:47;101521.78;;;1.26;75.25
21520;BME280;10921;53.614;9.882;2022-12-16T13:52:40;101516.59;;;1.25;75.81
21520;BME280;10921;53.614;9.882;2022-12-16T13:55:56;101524.28;;;1.29;76.59
21520;BME280;10921;53.614;9.882;2022-12-16T13:58:50;101532.13;;;1.31;76.84
21520;BME280;10921;53.614;9.882;2022-12-16T14:01:56;101535.06;;;1.44;77.09
21520;BME280;10921;53.614;9.882;2022-12-16T14:04:44;101535.78;;;1.47;76.15
21520;BME280;10921;53.614;9.882;2022-12-16T14:07:33;101538.13;;;1.53;75.96
21520;BME280;10921;53.614;9.882;2022-12-16T14:10:24;101546.75;;;1.57;75.84
21520;BME280;10921;53.614;9.882;2022-12-16T14:13:32;101544.06;;;1.58;75.64
21520;BME280;10921;53.614;9.882;2022-12-16T14:25:33;101555.53;;;1.37;73.82
21520;BME280;10921;53.614;9.882;2022-12-16T14:28:26;101559.31;;;1.30;74.02
21520;BME280;10921;53.614;9.882;2022-12-16T14:31:20;101550.97;;;1.20;74.98
21520;BME280;10921;53.614;9.882;2022-12-16T14:34:14;101559.19;;;1.13;74.43
21520;BME280;10921;53.614;9.882;2022-12-16T14:37:15;101562.31;;;1.00;74.33
21520;BME280;10921;53.614;9.882;2022-12-16T15:51:29;101665.91;;;0.02;78.00
21520;BME280;10921;53.614;9.882;2022-12-16T15:54:18;101671.09;;;0.03;78.03
21520;BME280;10921;53.614;9.882;2022-12-16T16:03:04;101672.28;;;-0.06;77.06
21520;BME280;10921;53.614;9.882;2022-12-16T16:05:50;101677.44;;;-0.03;77.23
21520;BME280;10921;53.614;9.882;2022-12-16T16:08:35;101633.97;;;-0.34;77.01
21520;BME280;10921;53.614;9.882;2022-12-16T16:11:20;101676.88;;;-0.12;77.45
21520;BME280;10921;53.614;9.882;2022-12-16T16:14:05;101643.66;;;-0.37;77.52
21520;BME280;10921;53.614;9.882;2022-12-16T16:16:50;101669.53;;;-0.27;77.31
21520;BME280;10921;53.614;9.882;2022-12-16T16:19:35;101673.31;;;-0.34;77.72
21520;BME280;10921;53.614;9.882;2022-12-16T16:22:26;101682.88;;;-0.33;77.47
21520;BME280;10921;53.614;9.882;2022-12-16T16:25:11;101693.63;;;-0.41;77.68
21520;BME280;10921;53.614;9.882;2022-12-16T16:27:56;101683.44;;;-0.50;77.69
21520;BME280;10921;53.614;9.882;2022-12-16T16:30:41;101685.41;;;-0.57;77.62
21520;BME280;10921;53.614;9.882;2022-12-16T16:33:26;101682.09;;;-0.62;77.76
21520;BME280;10921;53.614;9.882;2022-12-16T16:36:14;101714.00;;;-0.49;78.68
21520;BME280;10921;53.614;9.882;2022-12-16T16:39:00;101661.25;;;-0.93;78.17
21520;BME280;10921;53.614;9.882;2022-12-16T16:41:45;101616.66;;;-1.19;78.57
21520;BME280;10921;53.614;9.882;2022-12-16T16:44:30;101628.81;;;-1.17;78.76
21520;BME280;10921;53.614;9.882;2022-12-16T16:47:16;101584.69;;;-1.29;78.85
21520;BME280;10921;53.614;9.882;2022-12-16T16:50:01;101719.06;;;-0.45;78.80
21520;BME280;10921;53.614;9.882;2022-12-16T16:52:46;101706.88;;;-0.46;78.99
21520;BME280;10921;53.614;9.882;2022-12-16T16:55:31;101668.28;;;-0.67;79.56